Time;durP1;ratioP1;P1;durP2;ratioP2;P2;SDS_P1;SDS_P2;PMS_P1;PMS_P2;Temp;Humidity;BMP_temperature;BMP_pressure;BME280_temperature;BME280_humidity;BME280_pressure;Samples;Min_cycle;Max_cycle;Signal;HPM_P1;HPM_P2
2021/10/16 00:00:09;;;;;;;11.18;7.63;;;23.50;41.40;;;;;;6257481;27;80841;-70
2021/10/16 00:03:12;;;;;;;12.90;7.50;;;23.50;41.40;;;;;;6257891;27;83294;-71
2021/10/16 00:06:13;;;;;;;12.10;7.40;;;23.50;41.40;;;;;;6261181;27;81797;-71
2021/10/16 00:09:13;;;;;;;13.13;8.13;;;23.50;41.40;;;;;;6258472;27;80951;-70
2021/10/16 00:12:14;;;;;;;13.52;7.47;;;23.50;41.20;;;;;;6256914;27;81351;-70
2021/10/16 00:15:14;;;;;;;14.52;7.32;;;23.50;41.40;;;;;;6245227;27;80562;-71
2021/10/16 00:18:15;;;;;;;10.95;6.88;;;23.50;41.40;;;;;;6258546;27;81537;-71
2021/10/16 00:21:15;;;;;;;10.32;7.38;;;23.50;41.30;;;;;;6256504;27;80363;-70
2021/10/16 00:24:16;;;;;;;11.77;7.00;;;23.50;41.30;;;;;;6258247;27;81401;-70
2021/10/16 00:27:16;;;;;;;11.77;6.85;;;23.50;41.30;;;;;;6253006;27;80643;-71
2021/10/16 00:30:17;;;;;;;10.00;6.40;;;23.50;41.30;;;;;;6252498;27;80940;-70
2021/10/16 00:33:17;;;;;;;8.98;5.93;;;23.50;41.20;;;;;;6259904;27;80903;-70
2021/10/16 00:36:19;;;;;;;11.07;6.97;;;23.50;41.30;;;;;;6259565;27;80556;-70
2021/10/16 00:39:20;;;;;;;9.65;5.95;;;23.40;41.30;;;;;;6259242;27;80308;-70
2021/10/16 00:42:20;;;;;;;8.73;5.63;;;23.40;41.20;;;;;;6256600;28;80573;-70
2021/10/16 00:45:21;;;;;;;9.82;6.20;;;23.40;41.30;;;;;;6252994;27;80437;-70
2021/10/16 00:48:22;;;;;;;9.18;5.40;;;23.40;41.30;;;;;;6256662;27;81189;-68
2021/10/16 00:51:22;;;;;;;8.70;5.80;;;23.40;41.30;;;;;;6259883;27;80689;-69
2021/10/16 00:54:23;;;;;;;8.52;5.07;;;23.40;41.30;;;;;;6255011;27;80799;-69
2021/10/16 00:57:23;;;;;;;10.43;6.25;;;23.40;41.30;;;;;;6257560;27;80312;-69
2021/10/16 01:00:24;;;;;;;9.18;5.30;;;23.50;41.40;;;;;;6251147;28;81451;-68
2021/10/16 01:03:24;;;;;;;8.15;5.35;;;23.40;41.20;;;;;;6246176;27;80551;-69
2021/10/16 01:06:27;;;;;;;9.00;5.40;;;23.40;41.20;;;;;;6256295;28;82590;-69
2021/10/16 01:09:27;;;;;;;7.35;4.82;;;23.40;41.30;;;;;;6246673;27;83684;-68
2021/10/16 01:12:29;;;;;;;5.72;4.25;;;23.40;41.20;;;;;;6250401;27;83716;-68
2021/10/16 01:15:29;;;;;;;6.15;4.30;;;23.40;41.20;;;;;;6259193;27;80540;-69
2021/10/16 01:18:31;;;;;;;6.85;4.47;;;23.40;41.10;;;;;;6242691;27;80302;-69
2021/10/16 01:21:31;;;;;;;7.55;4.45;;;23.40;41.10;;;;;;6254507;27;80647;-68
2021/10/16 01:24:32;;;;;;;7.20;4.93;;;23.40;41.10;;;;;;6257532;27;82085;-70
2021/10/16 01:27:32;;;;;;;5.28;3.95;;;23.40;41.00;;;;;;6255502;28;82931;-69
2021/10/16 01:30:33;;;;;;;8.55;4.03;;;23.40;41.00;;;;;;6249625;27;83683;-69
2021/10/16 01:33:34;;;;;;;4.97;3.80;;;23.40;40.90;;;;;;6258208;27;80740;-69
2021/10/16 01:36:35;;;;;;;7.43;4.43;;;23.40;40.90;;;;;;6256046;27;80782;-68
2021/10/16 01:39:35;;;;;;;7.28;4.63;;;23.40;40.90;;;;;;6255355;27;80706;-68
2021/10/16 01:42:37;;;;;;;7.93;4.65;;;23.30;40.90;;;;;;6256888;28;83303;-68
2021/10/16 01:45:38;;;;;;;7.50;4.53;;;23.30;40.80;;;;;;6257374;27;83051;-69
2021/10/16 01:48:40;;;;;;;6.22;4.30;;;23.40;40.80;;;;;;6256384;28;82273;-69
2021/10/16 01:51:41;;;;;;;6.22;3.70;;;23.30;40.60;;;;;;6255451;27;83880;-70
2021/10/16 01:54:42;;;;;;;6.75;3.85;;;23.40;40.70;;;;;;6256756;27;84081;-71
2021/10/16 01:57:45;;;;;;;4.75;3.42;;;23.40;40.70;;;;;;6253941;27;81479;-71
2021/10/16 02:00:46;;;;;;;5.05;3.50;;;23.30;40.60;;;;;;6252088;28;83428;-70
2021/10/16 02:03:46;;;;;;;4.50;3.30;;;23.30;40.60;;;;;;6256527;27;82713;-71
2021/10/16 02:07:00;;;;;;;4.72;3.30;;;23.30;40.50;;;;;;6251577;27;81700;-71
2021/10/16 02:10:05;;;;;;;5.63;3.38;;;23.30;40.40;;;;;;6255467;27;83564;-71
2021/10/16 02:13:06;;;;;;;5.20;3.65;;;23.30;40.30;;;;;;6255703;27;81611;-72
2021/10/16 02:16:13;;;;;;;7.63;3.97;;;23.30;40.30;;;;;;6254463;27;81594;-72
2021/10/16 02:19:34;;;;;;;4.00;3.35;;;23.30;40.40;;;;;;6251221;27;82648;-72
2021/10/16 02:22:35;;;;;;;5.75;3.58;;;23.30;40.10;;;;;;6255615;27;81267;-72
2021/10/16 02:25:36;;;;;;;6.72;3.05;;;23.30;40.20;;;;;;6254585;27;82302;-72
2021/10/16 02:28:37;;;;;;;3.75;2.58;;;23.30;40.10;;;;;;6255414;27;80543;-71
2021/10/16 02:32:01;;;;;;;4.22;2.92;;;23.20;40.00;;;;;;6248699;27;85880;-71
2021/10/16 02:35:02;;;;;;;5.15;2.97;;;23.20;39.90;;;;;;6248618;27;81564;-70
2021/10/16 02:38:03;;;;;;;4.93;3.08;;;23.20;39.90;;;;;;6255477;27;82690;-70
2021/10/16 02:41:04;;;;;;;4.53;2.95;;;23.30;40.00;;;;;;6247684;27;82160;-70
2021/10/16 02:44:04;;;;;;;5.20;2.53;;;23.20;39.90;;;;;;6239611;27;83827;-69
2021/10/16 02:47:12;;;;;;;4.47;2.63;;;23.30;39.90;;;;;;6249606;27;83299;-69
2021/10/16 02:50:14;;;;;;;5.78;2.90;;;23.20;39.70;;;;;;6253358;27;80778;-70
2021/10/16 02:53:15;;;;;;;4.72;2.58;;;23.20;39.70;;;;;;6249106;27;80699;-70
2021/10/16 02:56:15;;;;;;;4.97;2.80;;;23.20;39.60;;;;;;6254046;27;83043;-70
2021/10/16 02:59:16;;;;;;;6.05;2.88;;;23.20;39.60;;;;;;6255085;27;83441;-72
2021/10/16 03:02:22;;;;;;;4.30;3.03;;;23.20;40.30;;;;;;6254947;27;83431;-71
2021/10/16 03:05:23;;;;;;;3.42;2.72;;;23.20;40.40;;;;;;6255172;27;83157;-71
2021/10/16 03:08:24;;;;;;;5.53;2.92;;;23.20;39.90;;;;;;6256118;27;83356;-71
2021/10/16 03:11:24;;;;;;;4.18;2.83;;;23.20;40.00;;;;;;6260277;27;80805;-71
2021/10/16 03:14:25;;;;;;;4.57;2.90;;;23.20;39.90;;;;;;6256641;27;80469;-72
2021/10/16 03:17:26;;;;;;;3.63;2.65;;;23.20;40.00;;;;;;6259863;27;82337;-72
2021/10/16 03:20:27;;;;;;;4.45;3.00;;;23.20;39.90;;;;;;6258377;27;82797;-72
2021/10/16 03:23:29;;;;;;;7.65;3.55;;;23.20;40.00;;;;;;6250061;27;83247;-72
2021/10/16 03:26:29;;;;;;;5.97;3.03;;;23.10;40.00;;;;;;6245710;27;83420;-72
2021/10/16 03:29:30;;;;;;;7.00;3.75;;;23.20;40.00;;;;;;6257800;27;83326;-71
2021/10/16 03:32:30;;;;;;;4.05;3.53;;;23.10;40.20;;;;;;6248285;27;82045;-71
2021/10/16 03:35:31;;;;;;;6.00;3.75;;;23.20;40.20;;;;;;6260807;27;80712;-71
2021/10/16 03:38:32;;;;;;;4.50;3.10;;;23.20;40.20;;;;;;6259283;27;82707;-72
2021/10/16 03:41:32;;;;;;;5.28;3.33;;;23.20;40.20;;;;;;6256560;27;80053;-71
2021/10/16 03:44:34;;;;;;;4.85;3.47;;;23.10;40.20;;;;;;6245820;27;82213;-70
2021/10/16 03:47:35;;;;;;;3.85;3.45;;;23.10;40.30;;;;;;6259020;27;82477;-71
2021/10/16 03:50:36;;;;;;;7.55;3.47;;;23.10;40.20;;;;;;6257442;27;80438;-72
2021/10/16 03:53:37;;;;;;;6.03;3.83;;;23.10;40.30;;;;;;6256966;27;83798;-71
2021/10/16 03:56:38;;;;;;;5.15;3.60;;;23.10;40.30;;;;;;6257261;27;83065;-71
2021/10/16 03:59:43;;;;;;;4.13;3.30;;;23.00;40.30;;;;;;6258099;27;83268;-70
2021/10/16 04:02:46;;;;;;;5.83;3.30;;;23.00;40.20;;;;;;6257357;27;83153;-70
2021/10/16 04:05:47;;;;;;;6.90;4.22;;;23.10;40.30;;;;;;6258226;28;83171;-71
2021/10/16 04:08:48;;;;;;;8.20;4.18;;;23.10;40.30;;;;;;6259294;27;81366;-71
2021/10/16 04:11:49;;;;;;;8.80;4.63;;;23.00;40.10;;;;;;6255120;28;82443;-71
2021/10/16 04:14:50;;;;;;;6.50;4.90;;;23.00;40.20;;;;;;6254739;28;82776;-72
2021/10/16 04:17:55;;;;;;;6.95;4.82;;;23.00;40.20;;;;;;6251122;27;84145;-71
2021/10/16 04:20:56;;;;;;;5.28;3.97;;;23.00;40.20;;;;;;6254701;27;80873;-71
2021/10/16 04:23:57;;;;;;;6.40;4.28;;;23.00;40.10;;;;;;6257713;27;83185;-71
2021/10/16 04:26:58;;;;;;;6.13;4.13;;;23.00;40.10;;;;;;6258115;27;83170;-71
2021/10/16 04:30:02;;;;;;;6.15;3.90;;;23.00;40.10;;;;;;6254612;28;83810;-71
2021/10/16 04:33:09;;;;;;;4.93;3.33;;;23.00;40.10;;;;;;6254821;27;83042;-72
2021/10/16 04:36:09;;;;;;;6.60;3.63;;;23.00;40.30;;;;;;6253362;27;80577;-73
2021/10/16 04:39:10;;;;;;;5.68;3.55;;;23.00;40.60;;;;;;6257623;27;81212;-73
2021/10/16 04:42:15;;;;;;;7.35;3.63;;;23.00;40.80;;;;;;6249451;27;84858;-73
2021/10/16 04:45:16;;;;;;;6.88;4.00;;;23.10;41.20;;;;;;6251180;27;81532;-73
2021/10/16 04:48:17;;;;;;;5.35;3.35;;;23.20;42.10;;;;;;6258449;27;83244;-72
2021/10/16 04:51:18;;;;;;;5.43;3.00;;;23.30;41.90;;;;;;6252343;27;83109;-72
2021/10/16 04:54:18;;;;;;;7.47;3.42;;;23.40;41.60;;;;;;6257590;27;81407;-74
2021/10/16 04:57:20;;;;;;;7.30;3.80;;;23.40;41.60;;;;;;6252781;28;81735;-73
2021/10/16 05:00:20;;;;;;;6.25;3.25;;;23.40;41.80;;;;;;6254634;27;83175;-72
2021/10/16 05:03:21;;;;;;;7.30;3.25;;;23.50;41.90;;;;;;6258409;27;80362;-73
2021/10/16 05:06:22;;;;;;;5.97;3.30;;;23.60;42.00;;;;;;6257127;27;82797;-73
2021/10/16 05:09:25;;;;;;;5.22;3.67;;;23.60;42.00;;;;;;6257775;27;83052;-74
2021/10/16 05:12:25;;;;;;;5.95;2.90;;;23.70;42.10;;;;;;6260153;27;83421;-70
2021/10/16 05:15:26;;;;;;;5.60;3.45;;;23.70;42.10;;;;;;6254756;27;83483;-74
2021/10/16 05:18:27;;;;;;;6.70;3.85;;;23.80;42.00;;;;;;6241115;27;83050;-74
2021/10/16 05:21:28;;;;;;;6.95;2.97;;;23.90;42.00;;;;;;6254224;27;83102;-73
2021/10/16 05:24:29;;;;;;;4.95;3.35;;;23.80;41.90;;;;;;6245687;27;80521;-73
2021/10/16 05:27:32;;;;;;;9.65;3.72;;;23.90;41.80;;;;;;6242779;27;81456;-74
2021/10/16 05:30:33;;;;;;;11.75;4.22;;;23.90;41.40;;;;;;6253760;27;83511;-74
2021/10/16 05:33:33;;;;;;;6.40;3.80;;;23.90;41.10;;;;;;6253553;27;82791;-73
2021/10/16 05:36:35;;;;;;;5.95;4.00;;;24.00;41.00;;;;;;6238120;27;82020;-73
2021/10/16 05:39:36;;;;;;;7.30;3.65;;;24.00;40.90;;;;;;6253733;27;84433;-74
2021/10/16 05:42:36;;;;;;;7.78;3.40;;;24.00;40.70;;;;;;6245103;27;83750;-73
2021/10/16 05:45:37;;;;;;;6.60;3.13;;;24.00;40.50;;;;;;6249340;27;83184;-73
2021/10/16 05:48:38;;;;;;;7.63;4.45;;;24.00;40.90;;;;;;6253537;27;81474;-72
2021/10/16 05:51:42;;;;;;;7.80;4.55;;;24.00;41.10;;;;;;6257042;27;82729;-73
2021/10/16 05:54:42;;;;;;;7.30;4.22;;;24.00;41.10;;;;;;6255921;27;81659;-73
2021/10/16 05:57:43;;;;;;;8.52;4.50;;;24.00;41.30;;;;;;6245862;27;82473;-72
2021/10/16 06:00:44;;;;;;;7.25;4.55;;;24.10;41.00;;;;;;6255181;27;82597;-73
2021/10/16 06:03:48;;;;;;;9.75;4.60;;;24.10;41.00;;;;;;6250195;27;82061;-73
2021/10/16 06:06:50;;;;;;;5.78;4.40;;;24.10;40.90;;;;;;6253604;27;83149;-74
2021/10/16 06:09:50;;;;;;;8.38;4.00;;;24.10;40.90;;;;;;6248567;27;83535;-74
2021/10/16 06:12:51;;;;;;;9.80;4.05;;;24.10;40.90;;;;;;6252303;27;83799;-75
2021/10/16 06:15:51;;;;;;;7.88;4.43;;;24.10;41.00;;;;;;6254327;27;83284;-74
2021/10/16 06:18:52;;;;;;;9.93;4.40;;;24.10;41.20;;;;;;6255208;27;80301;-74
2021/10/16 06:21:53;;;;;;;6.10;3.92;;;24.20;41.50;;;;;;6253798;27;83076;-73
2021/10/16 06:24:53;;;;;;;9.00;3.80;;;24.10;41.20;;;;;;6254734;27;83452;-73
2021/10/16 06:27:55;;;;;;;11.45;4.05;;;24.20;41.00;;;;;;6252654;27;83437;-73
2021/10/16 06:30:55;;;;;;;6.03;3.50;;;24.20;40.90;;;;;;6253464;27;83049;-73
2021/10/16 06:33:57;;;;;;;10.68;4.70;;;24.20;40.70;;;;;;6254819;27;83075;-72
2021/10/16 06:36:57;;;;;;;8.55;3.58;;;24.20;40.70;;;;;;6254378;27;80759;-70
2021/10/16 06:39:58;;;;;;;7.15;4.28;;;24.20;40.60;;;;;;6241710;27;82264;-72
2021/10/16 06:43:00;;;;;;;6.32;3.80;;;24.30;40.50;;;;;;6247252;27;81728;-73
2021/10/16 06:46:01;;;;;;;7.80;4.35;;;24.20;40.80;;;;;;6254067;27;80347;-72
2021/10/16 06:49:16;;;;;;;13.10;4.13;;;24.20;40.90;;;;;;6243188;27;82668;-72
2021/10/16 06:52:17;;;;;;;7.80;4.57;;;24.30;41.00;;;;;;6250606;27;83310;-73
2021/10/16 06:55:19;;;;;;;6.70;3.78;;;24.30;40.90;;;;;;6252383;27;80607;-73
2021/10/16 06:58:20;;;;;;;6.30;3.13;;;24.30;41.00;;;;;;6251413;27;82303;-74
2021/10/16 07:01:22;;;;;;;8.50;3.95;;;24.30;40.90;;;;;;6261144;27;83491;-74
2021/10/16 07:04:27;;;;;;;6.78;3.72;;;24.40;41.00;;;;;;6250952;27;82671;-74
2021/10/16 07:07:31;;;;;;;7.85;3.72;;;24.40;41.00;;;;;;6246541;27;83284;-70
2021/10/16 07:10:38;;;;;;;8.38;3.80;;;24.40;40.80;;;;;;6255412;27;82971;-71
2021/10/16 07:13:38;;;;;;;9.05;4.07;;;24.40;41.00;;;;;;6256616;27;86871;-69
2021/10/16 07:16:39;;;;;;;8.98;3.78;;;24.40;40.50;;;;;;6253350;28;83171;-71
2021/10/16 07:19:40;;;;;;;9.82;4.15;;;24.50;40.50;;;;;;6252498;27;81752;-72
2021/10/16 07:22:40;;;;;;;6.68;3.83;;;24.50;40.50;;;;;;6252049;27;81085;-73
2021/10/16 07:25:41;;;;;;;9.20;3.40;;;24.50;40.50;;;;;;6254778;27;82115;-69
2021/10/16 07:28:42;;;;;;;6.85;3.90;;;24.50;40.90;;;;;;6252673;27;81187;-72
2021/10/16 07:31:43;;;;;;;9.40;4.50;;;24.50;40.40;;;;;;6251986;27;80278;-73
2021/10/16 07:34:43;;;;;;;6.88;4.40;;;24.50;40.20;;;;;;6255202;27;84174;-75
2021/10/16 07:37:44;;;;;;;9.90;4.45;;;24.50;40.20;;;;;;6256578;27;81068;-75
2021/10/16 07:40:44;;;;;;;9.10;4.63;;;24.50;41.00;;;;;;6248212;27;81181;-73
2021/10/16 07:43:45;;;;;;;7.40;4.10;;;24.50;40.40;;;;;;6250892;27;82025;-72
2021/10/16 07:46:45;;;;;;;6.63;3.90;;;24.50;40.20;;;;;;6247571;27;81954;-73
2021/10/16 07:49:46;;;;;;;8.07;4.55;;;24.40;40.00;;;;;;6252950;27;80434;-73
2021/10/16 07:52:46;;;;;;;6.90;4.32;;;24.50;40.10;;;;;;6252450;27;83172;-72
2021/10/16 07:55:49;;;;;;;7.55;3.97;;;24.40;40.20;;;;;;6248535;27;81969;-70
2021/10/16 07:58:49;;;;;;;5.88;3.83;;;24.40;40.30;;;;;;6250700;27;81874;-73
2021/10/16 08:01:50;;;;;;;10.27;4.10;;;24.40;40.40;;;;;;6256468;27;80313;-74
2021/10/16 08:04:50;;;;;;;8.27;4.88;;;24.40;40.50;;;;;;6255563;27;80919;-72
2021/10/16 08:07:52;;;;;;;7.43;4.20;;;24.40;40.50;;;;;;6257968;27;81295;-73
2021/10/16 08:10:53;;;;;;;9.30;4.05;;;24.40;40.50;;;;;;6257724;27;82863;-72
2021/10/16 08:13:53;;;;;;;8.60;4.18;;;24.40;40.80;;;;;;6249951;27;80478;-72
2021/10/16 08:16:54;;;;;;;7.35;3.65;;;24.40;40.50;;;;;;6259761;27;81304;-72
2021/10/16 08:19:54;;;;;;;5.63;3.50;;;24.40;40.40;;;;;;6257928;27;81210;-73
2021/10/16 08:22:54;;;;;;;7.05;3.75;;;24.40;40.50;;;;;;6260820;27;80302;-73
2021/10/16 08:25:59;;;;;;;7.13;4.00;;;24.40;40.50;;;;;;6251409;27;81515;-73
2021/10/16 08:28:59;;;;;;;7.95;4.13;;;24.40;40.50;;;;;;6254945;27;80616;-73
2021/10/16 08:32:00;;;;;;;6.13;4.18;;;24.40;40.40;;;;;;6259566;27;81319;-74
2021/10/16 08:35:00;;;;;;;8.00;3.97;;;24.40;40.50;;;;;;6259997;27;80435;-73
2021/10/16 08:38:01;;;;;;;8.52;4.43;;;24.40;40.30;;;;;;6252775;27;80504;-72
2021/10/16 08:41:01;;;;;;;8.18;4.65;;;24.40;40.30;;;;;;6259889;27;80842;-72
2021/10/16 08:44:02;;;;;;;26.73;4.13;;;24.40;40.30;;;;;;6263621;27;80648;-71
2021/10/16 08:47:03;;;;;;;6.72;3.60;;;24.40;40.10;;;;;;6256603;27;80931;-71
2021/10/16 08:50:03;;;;;;;7.30;3.58;;;24.40;40.30;;;;;;6256428;27;81160;-72
2021/10/16 08:53:04;;;;;;;8.77;4.15;;;24.40;40.30;;;;;;6255664;27;80924;-74
2021/10/16 08:56:04;;;;;;;8.60;3.88;;;24.40;40.40;;;;;;6256901;27;80796;-72
2021/10/16 08:59:05;;;;;;;6.35;4.07;;;24.40;40.50;;;;;;6258062;27;80650;-73
2021/10/16 09:02:05;;;;;;;6.82;3.85;;;24.40;40.60;;;;;;6258589;27;81738;-72
2021/10/16 09:05:06;;;;;;;6.95;3.55;;;24.50;40.50;;;;;;6259710;27;80084;-74
2021/10/16 09:08:06;;;;;;;4.38;3.13;;;24.40;40.40;;;;;;6257402;27;80837;-74
2021/10/16 09:11:07;;;;;;;9.75;3.65;;;24.50;40.40;;;;;;6256512;27;81348;-72
2021/10/16 09:14:07;;;;;;;7.13;3.40;;;24.50;40.10;;;;;;6256741;27;80875;-73
2021/10/16 09:17:08;;;;;;;7.40;3.88;;;24.50;40.20;;;;;;6256197;27;80604;-73
2021/10/16 09:20:08;;;;;;;6.25;3.88;;;24.50;40.30;;;;;;6259131;27;83002;-72
2021/10/16 09:23:12;;;;;;;6.82;3.97;;;24.50;40.40;;;;;;6248809;27;80993;-73
2021/10/16 09:26:13;;;;;;;6.88;3.70;;;24.50;40.10;;;;;;6253945;27;80808;-73
2021/10/16 09:29:13;;;;;;;7.75;4.00;;;24.60;40.40;;;;;;6257097;27;81159;-73
2021/10/16 09:32:14;;;;;;;5.80;3.45;;;24.60;40.40;;;;;;6257089;27;80647;-73
2021/10/16 09:35:14;;;;;;;7.93;3.72;;;24.60;40.50;;;;;;6260017;27;80827;-73
2021/10/16 09:38:15;;;;;;;6.22;3.50;;;24.60;40.40;;;;;;6270673;27;80103;-72
2021/10/16 09:41:15;;;;;;;13.23;3.65;;;24.50;40.60;;;;;;6260568;27;80475;-72
2021/10/16 09:44:16;;;;;;;4.35;3.20;;;24.50;41.50;;;;;;6255311;27;80829;-70
2021/10/16 09:47:17;;;;;;;9.07;3.92;;;24.50;43.30;;;;;;6251933;27;81997;-73
2021/10/16 09:50:18;;;;;;;8.02;3.70;;;24.50;41.80;;;;;;6260022;27;80109;-71
2021/10/16 09:53:18;;;;;;;11.43;3.97;;;24.50;41.80;;;;;;6253817;27;87724;-72
2021/10/16 09:56:19;;;;;;;5.38;3.45;;;24.50;41.90;;;;;;6254970;27;80539;-71
2021/10/16 09:59:19;;;;;;;4.05;3.13;;;24.50;41.70;;;;;;6255075;27;81292;-73
2021/10/16 10:02:20;;;;;;;7.07;3.45;;;24.50;41.80;;;;;;6256572;27;80190;-73
2021/10/16 10:05:21;;;;;;;6.53;3.42;;;24.50;42.10;;;;;;6256009;27;80672;-72
2021/10/16 10:08:22;;;;;;;10.65;4.07;;;24.50;42.20;;;;;;6256273;27;80300;-72
2021/10/16 10:11:22;;;;;;;7.95;3.30;;;24.50;42.40;;;;;;6256717;27;80718;-72
2021/10/16 10:14:24;;;;;;;11.77;3.75;;;24.50;42.20;;;;;;6255997;27;81034;-72
2021/10/16 10:17:25;;;;;;;7.97;4.18;;;24.50;42.90;;;;;;6259957;27;80348;-72
2021/10/16 10:20:25;;;;;;;10.27;3.95;;;24.40;42.50;;;;;;6252424;27;81371;-71
2021/10/16 10:23:26;;;;;;;11.80;4.85;;;24.50;42.70;;;;;;6252364;27;80221;-71
2021/10/16 10:26:27;;;;;;;8.88;4.20;;;24.50;42.30;;;;;;6254815;27;80524;-70
2021/10/16 10:29:27;;;;;;;7.50;4.40;;;24.40;42.60;;;;;;6255249;27;81660;-70
2021/10/16 10:32:28;;;;;;;5.78;3.83;;;24.50;42.90;;;;;;6257623;27;80694;-71
2021/10/16 10:35:28;;;;;;;8.05;4.05;;;24.50;42.80;;;;;;6256964;27;81368;-70
2021/10/16 10:38:29;;;;;;;7.07;3.85;;;24.40;42.70;;;;;;6255407;27;80948;-71
2021/10/16 10:41:30;;;;;;;11.95;4.80;;;24.50;42.80;;;;;;6253697;27;80204;-71
2021/10/16 10:44:30;;;;;;;8.32;4.20;;;24.40;42.70;;;;;;6257669;27;80660;-70
2021/10/16 10:47:31;;;;;;;13.23;5.10;;;24.40;42.90;;;;;;6255774;27;80254;-71
2021/10/16 10:50:34;;;;;;;9.35;4.50;;;24.50;42.40;;;;;;6258058;27;80847;-73
2021/10/16 10:53:35;;;;;;;11.07;4.90;;;24.40;42.60;;;;;;6255936;27;80867;-73
2021/10/16 10:56:35;;;;;;;9.32;4.30;;;24.40;42.70;;;;;;6253867;27;80415;-75
2021/10/16 10:59:36;;;;;;;8.93;4.47;;;24.40;42.30;;;;;;6256931;27;81435;-72
2021/10/16 11:02:36;;;;;;;7.70;4.40;;;24.40;42.60;;;;;;6255670;27;81894;-73
2021/10/16 11:05:37;;;;;;;9.90;4.40;;;24.40;42.40;;;;;;6257014;27;80343;-73
2021/10/16 11:08:37;;;;;;;6.18;4.45;;;24.40;42.60;;;;;;6255354;27;81159;-73
2021/10/16 11:11:38;;;;;;;6.70;4.05;;;24.40;42.10;;;;;;6257755;27;80474;-72
2021/10/16 11:14:39;;;;;;;9.30;4.88;;;24.40;42.30;;;;;;6258035;27;82022;-70
2021/10/16 11:17:39;;;;;;;9.43;4.40;;;24.40;42.20;;;;;;6257035;27;80368;-73
2021/10/16 11:20:40;;;;;;;8.00;4.50;;;24.40;42.10;;;;;;6243262;27;80665;-72
2021/10/16 11:23:41;;;;;;;13.05;5.30;;;24.40;42.10;;;;;;6256283;27;82351;-73
2021/10/16 11:26:41;;;;;;;12.70;5.43;;;24.40;42.50;;;;;;6255180;27;81794;-71
2021/10/16 11:29:42;;;;;;;12.68;5.43;;;24.40;42.30;;;;;;6255984;27;81358;-71
2021/10/16 11:32:42;;;;;;;7.65;4.53;;;24.40;42.40;;;;;;6258630;27;80612;-72
2021/10/16 11:35:43;;;;;;;7.47;4.72;;;24.40;42.10;;;;;;6253423;27;80880;-72
2021/10/16 11:38:43;;;;;;;11.15;5.50;;;24.40;42.30;;;;;;6260482;27;80475;-70
2021/10/16 11:41:44;;;;;;;9.82;4.82;;;24.40;42.50;;;;;;6258637;27;82265;-71
2021/10/16 11:44:44;;;;;;;10.30;5.15;;;24.40;43.10;;;;;;6259648;27;80494;-71
2021/10/16 11:47:45;;;;;;;10.73;4.65;;;24.40;42.90;;;;;;6261143;27;80378;-73
2021/10/16 11:50:45;;;;;;;11.65;5.20;;;24.40;43.00;;;;;;6259265;27;80396;-71
2021/10/16 11:53:46;;;;;;;10.05;5.55;;;24.40;43.80;;;;;;6258503;27;82079;-73
2021/10/16 11:56:47;;;;;;;39.85;27.90;;;24.40;43.20;;;;;;6257268;27;80687;-74
2021/10/16 11:59:47;;;;;;;44.08;31.65;;;24.40;45.10;;;;;;6253862;27;82916;-72
2021/10/16 12:02:48;;;;;;;31.88;24.90;;;24.40;45.40;;;;;;6255626;27;84048;-72
2021/10/16 12:05:49;;;;;;;26.48;19.60;;;24.40;45.40;;;;;;6254027;27;83730;-71
2021/10/16 12:08:50;;;;;;;28.90;18.83;;;24.40;44.20;;;;;;6255939;27;83511;-72
2021/10/16 12:11:51;;;;;;;27.40;18.02;;;24.30;44.20;;;;;;6253645;27;83210;-74
2021/10/16 12:14:51;;;;;;;25.77;17.35;;;24.30;44.50;;;;;;6256562;27;83083;-72
2021/10/16 12:17:52;;;;;;;25.00;16.63;;;24.40;44.30;;;;;;6255550;27;83260;-73
2021/10/16 12:20:53;;;;;;;23.90;16.33;;;24.40;44.40;;;;;;6254903;27;84490;-72
2021/10/16 12:23:53;;;;;;;23.48;15.32;;;24.40;45.10;;;;;;6255214;27;83493;-71
2021/10/16 12:26:54;;;;;;;20.58;15.38;;;24.40;44.60;;;;;;6253157;27;84767;-71
2021/10/16 12:29:54;;;;;;;19.45;14.63;;;24.40;44.40;;;;;;6254465;27;83653;-73
2021/10/16 12:32:55;;;;;;;18.70;14.45;;;24.40;44.50;;;;;;6254150;27;85151;-72
2021/10/16 12:35:55;;;;;;;20.77;14.20;;;24.40;44.50;;;;;;6255497;27;83043;-72
2021/10/16 12:38:56;;;;;;;20.23;13.20;;;24.50;44.70;;;;;;6254236;27;83103;-72
2021/10/16 12:41:56;;;;;;;19.83;13.90;;;24.40;44.60;;;;;;6256551;27;84051;-72
2021/10/16 12:44:57;;;;;;;22.55;12.48;;;24.50;44.30;;;;;;6256044;27;84974;-72
2021/10/16 12:47:57;;;;;;;18.85;12.93;;;24.40;44.20;;;;;;6252524;27;83077;-72
2021/10/16 12:50:58;;;;;;;15.20;11.40;;;24.40;44.20;;;;;;6255252;27;83407;-72
2021/10/16 12:54:00;;;;;;;17.67;11.15;;;24.40;44.20;;;;;;6247838;27;90349;-73
2021/10/16 12:57:01;;;;;;;15.90;10.95;;;24.50;45.40;;;;;;6247101;28;84329;-72
2021/10/16 13:00:02;;;;;;;17.33;11.10;;;24.50;47.50;;;;;;6250668;27;83796;-74
2021/10/16 13:03:02;;;;;;;19.23;10.95;;;24.50;48.50;;;;;;6251525;27;83419;-75
2021/10/16 13:06:03;;;;;;;13.75;9.63;;;24.50;49.20;;;;;;6250233;27;83322;-70
2021/10/16 13:09:03;;;;;;;13.55;10.32;;;24.50;48.10;;;;;;6259573;27;82702;-71
2021/10/16 13:12:04;;;;;;;13.10;8.75;;;24.50;46.80;;;;;;6254167;27;86224;-67
2021/10/16 13:15:04;;;;;;;13.02;9.15;;;24.50;47.00;;;;;;6258291;27;84222;-73
2021/10/16 13:18:05;;;;;;;17.35;9.63;;;24.50;47.50;;;;;;6260016;27;80611;-70
2021/10/16 13:21:05;;;;;;;17.20;10.10;;;24.50;47.90;;;;;;6259598;27;80547;-71
2021/10/16 13:24:06;;;;;;;17.10;9.70;;;24.50;47.10;;;;;;6245035;27;83196;-70
2021/10/16 13:27:06;;;;;;;10.23;8.00;;;24.50;47.20;;;;;;6249232;27;83201;-72
2021/10/16 13:30:07;;;;;;;14.10;9.38;;;24.50;46.70;;;;;;6257487;27;80381;-70
2021/10/16 13:33:07;;;;;;;14.18;8.32;;;24.50;46.90;;;;;;6256351;27;80658;-71
2021/10/16 13:36:08;;;;;;;13.98;8.68;;;24.50;47.00;;;;;;6258244;27;80724;-71
2021/10/16 13:39:08;;;;;;;11.48;8.10;;;24.50;46.90;;;;;;6255715;27;80422;-70
2021/10/16 13:42:09;;;;;;;12.60;7.63;;;24.50;46.80;;;;;;6241000;27;81839;-70
2021/10/16 13:45:09;;;;;;;11.48;8.10;;;24.50;46.70;;;;;;6245548;27;81547;-71
2021/10/16 13:48:10;;;;;;;15.10;7.95;;;24.50;47.40;;;;;;6251912;27;81554;-70
2021/10/16 13:51:11;;;;;;;15.93;8.80;;;24.50;46.10;;;;;;6245439;27;80600;-71
2021/10/16 13:54:11;;;;;;;13.00;8.23;;;24.50;46.70;;;;;;6231616;27;80735;-72
2021/10/16 13:57:11;;;;;;;11.52;7.63;;;24.50;46.40;;;;;;6260407;27;80602;-69
2021/10/16 14:00:12;;;;;;;12.20;7.32;;;24.50;45.80;;;;;;6259443;27;81543;-69
2021/10/16 14:03:12;;;;;;;14.23;7.97;;;24.50;46.10;;;;;;6257605;27;81027;-71
2021/10/16 14:06:13;;;;;;;11.48;7.13;;;24.40;45.50;;;;;;6259328;27;83152;-72
2021/10/16 14:09:13;;;;;;;11.75;7.25;;;24.40;45.60;;;;;;6257291;27;81081;-71
2021/10/16 14:12:14;;;;;;;11.25;7.07;;;24.40;45.50;;;;;;6259913;27;80461;-72
2021/10/16 14:15:15;;;;;;;10.80;7.00;;;24.40;45.50;;;;;;6257704;27;80412;-72
2021/10/16 14:18:15;;;;;;;11.88;6.95;;;24.40;45.40;;;;;;6256477;27;80994;-73
2021/10/16 14:21:15;;;;;;;10.38;7.05;;;24.40;45.40;;;;;;6249786;27;80405;-73
2021/10/16 14:24:16;;;;;;;9.07;6.45;;;24.50;45.80;;;;;;6257698;27;82334;-74
2021/10/16 14:27:16;;;;;;;12.93;7.13;;;24.50;45.60;;;;;;6252157;27;80375;-73
2021/10/16 14:30:18;;;;;;;11.43;6.60;;;24.50;45.60;;;;;;6249282;27;81924;-73
2021/10/16 14:33:22;;;;;;;11.23;6.22;;;24.50;45.40;;;;;;6258621;27;80492;-73
2021/10/16 14:36:22;;;;;;;11.05;6.70;;;24.50;45.50;;;;;;6257430;27;80544;-73
2021/10/16 14:39:23;;;;;;;12.85;6.95;;;24.50;45.60;;;;;;6259758;27;80877;-72
2021/10/16 14:42:23;;;;;;;14.20;7.10;;;24.40;45.50;;;;;;6258246;27;80651;-73
2021/10/16 14:45:24;;;;;;;10.13;6.70;;;24.40;45.40;;;;;;6253828;27;81352;-73
2021/10/16 14:48:25;;;;;;;11.13;6.13;;;24.50;45.40;;;;;;6253923;27;81059;-72
2021/10/16 14:51:25;;;;;;;10.60;6.43;;;24.40;45.10;;;;;;6253939;27;83156;-73
2021/10/16 14:54:26;;;;;;;12.43;6.10;;;24.40;45.20;;;;;;6253410;27;80700;-73
2021/10/16 14:57:26;;;;;;;9.25;5.68;;;24.50;45.40;;;;;;6256672;27;80481;-69
2021/10/16 15:00:27;;;;;;;9.95;5.80;;;24.40;45.00;;;;;;6248320;27;80554;-73
2021/10/16 15:03:28;;;;;;;14.15;6.85;;;24.50;45.10;;;;;;6254142;27;80307;-72
2021/10/16 15:06:29;;;;;;;10.35;5.50;;;24.40;44.70;;;;;;6255153;27;80477;-73
2021/10/16 15:09:29;;;;;;;14.65;5.80;;;24.50;44.70;;;;;;6248772;27;80846;-70
2021/10/16 15:12:30;;;;;;;8.13;5.28;;;24.50;45.50;;;;;;6252959;27;81037;-73
2021/10/16 15:15:34;;;;;;;12.82;6.22;;;24.50;45.20;;;;;;6248107;27;81770;-73
2021/10/16 15:18:35;;;;;;;13.73;5.47;;;24.50;44.70;;;;;;6250344;27;80478;-73
2021/10/16 15:21:35;;;;;;;9.85;5.55;;;24.50;44.70;;;;;;6248138;27;81290;-72
2021/10/16 15:24:36;;;;;;;10.98;5.53;;;24.50;44.70;;;;;;6254862;27;80465;-74
2021/10/16 15:27:36;;;;;;;10.13;5.47;;;24.40;44.60;;;;;;6258355;27;80795;-73
2021/10/16 15:30:37;;;;;;;9.40;5.28;;;24.40;44.50;;;;;;6262967;27;80583;-73
2021/10/16 15:33:38;;;;;;;11.32;5.53;;;24.50;45.00;;;;;;6249578;27;80570;-75
2021/10/16 15:36:38;;;;;;;11.60;6.15;;;24.50;44.70;;;;;;6248670;27;81727;-72